createdAt,value
2022-11-20T00:00:57.702Z,3.83
2022-11-20T00:03:25.729Z,3.80
2022-11-20T00:05:53.719Z,4.35
2022-11-20T00:08:22.101Z,3.78
2022-11-20T00:10:49.904Z,3.83
2022-11-20T00:13:17.673Z,3.65
2022-11-20T00:15:45.494Z,3.70
2022-11-20T00:18:14.791Z,4.10
2022-11-20T00:20:42.652Z,4.18
2022-11-20T00:23:10.570Z,3.67
2022-11-20T00:25:38.397Z,4.35
2022-11-20T00:28:06.164Z,4.43
2022-11-20T00:30:34.988Z,3.88
2022-11-20T00:33:02.892Z,3.42
2022-11-20T00:35:32.138Z,3.70
2022-11-20T00:37:59.896Z,3.58
2022-11-20T00:40:27.775Z,3.63
2022-11-20T00:42:55.538Z,3.75
2022-11-20T00:45:23.406Z,3.70
2022-11-20T00:47:51.290Z,5.38
2022-11-20T00:50:19.382Z,4.78
2022-11-20T00:52:49.868Z,3.58
2022-11-20T00:55:17.868Z,5.50
2022-11-20T00:57:46.216Z,5.13
2022-11-20T01:00:14.215Z,3.95
2022-11-20T01:02:42.028Z,4.50
2022-11-20T01:05:10.069Z,4.78
2022-11-20T01:07:38.005Z,4.00
2022-11-20T01:10:08.589Z,3.55
2022-11-20T01:12:36.773Z,4.43
2022-11-20T01:15:04.941Z,4.20
2022-11-20T01:17:35.449Z,4.28
2022-11-20T01:20:03.458Z,9.73
2022-11-20T01:22:31.337Z,8.80
2022-11-20T01:24:59.508Z,5.60
2022-11-20T01:27:28.854Z,3.40
2022-11-20T01:30:00.984Z,9.13
2022-11-20T01:32:29.178Z,6.35
2022-11-20T01:34:57.441Z,4.13
2022-11-20T01:37:25.762Z,5.70
2022-11-20T01:39:53.601Z,3.90
2022-11-20T01:42:38.575Z,5.68
2022-11-20T01:45:39.768Z,4.45
2022-11-20T01:48:09.621Z,4.43
2022-11-20T01:50:37.666Z,4.65
2022-11-20T01:53:10.035Z,4.50
2022-11-20T01:55:43.527Z,3.75
2022-11-20T01:58:11.651Z,3.95
2022-11-20T02:00:39.538Z,3.58
2022-11-20T02:03:12.119Z,4.03
2022-11-20T02:05:45.607Z,4.70
2022-11-20T02:08:14.628Z,3.90
2022-11-20T02:10:42.586Z,4.20
2022-11-20T02:13:28.512Z,3.72
2022-11-20T02:15:56.795Z,4.03
2022-11-20T02:18:26.649Z,3.80
2022-11-20T02:21:00.193Z,4.60
2022-11-20T02:23:34.987Z,3.55
2022-11-20T02:26:08.927Z,3.13
2022-11-20T02:28:37.087Z,3.45
2022-11-20T02:31:05.570Z,4.28
2022-11-20T02:33:33.342Z,3.63
2022-11-20T02:36:01.302Z,3.90
2022-11-20T02:38:29.185Z,3.92
2022-11-20T02:40:57.184Z,3.42
2022-11-20T02:43:26.389Z,3.63
2022-11-20T02:45:54.340Z,3.50
2022-11-20T02:48:25.030Z,3.15
2022-11-20T02:50:53.232Z,3.38
2022-11-20T02:53:21.184Z,3.00
2022-11-20T02:55:49.043Z,3.50
2022-11-20T02:58:17.044Z,3.50
2022-11-20T03:00:46.219Z,3.50
2022-11-20T03:03:14.686Z,3.40
2022-11-20T03:05:42.655Z,3.40
2022-11-20T03:08:10.423Z,3.47
2022-11-20T03:10:38.580Z,3.60
2022-11-20T03:13:06.458Z,3.97
2022-11-20T03:15:34.301Z,3.25
2022-11-20T03:18:03.495Z,2.75
2022-11-20T03:20:31.429Z,3.50
2022-11-20T03:22:59.229Z,2.83
2022-11-20T03:25:27.595Z,3.30
2022-11-20T03:27:56.264Z,3.05
2022-11-20T03:30:29.188Z,2.97
2022-11-20T03:32:58.888Z,3.03
2022-11-20T03:35:28.121Z,3.03
2022-11-20T03:37:55.911Z,3.08
2022-11-20T03:40:23.865Z,3.08
2022-11-20T03:42:51.720Z,3.13
2022-11-20T03:45:20.412Z,3.38
2022-11-20T03:47:48.881Z,2.83
2022-11-20T03:50:17.016Z,3.25
2022-11-20T03:52:46.110Z,3.10
2022-11-20T03:55:13.952Z,3.17
2022-11-20T03:57:42.554Z,2.85
2022-11-20T04:00:11.553Z,3.20
2022-11-20T04:02:39.692Z,3.30
2022-11-20T04:05:08.477Z,2.70
2022-11-20T04:07:37.241Z,3.25
2022-11-20T04:10:07.531Z,3.05
2022-11-20T04:12:35.618Z,2.97
2022-11-20T04:15:05.139Z,2.92
2022-11-20T04:17:33.083Z,2.92
2022-11-20T04:20:00.862Z,3.00
2022-11-20T04:22:28.680Z,3.13
2022-11-20T04:24:58.563Z,3.17
2022-11-20T04:27:27.946Z,2.85
2022-11-20T04:29:55.786Z,3.00
2022-11-20T04:32:23.881Z,2.72
2022-11-20T04:34:53.013Z,2.78
2022-11-20T04:37:20.808Z,3.13
2022-11-20T04:39:48.593Z,3.22
2022-11-20T04:42:31.411Z,2.60
2022-11-20T04:45:00.616Z,2.67
2022-11-20T04:47:28.829Z,2.88
2022-11-20T04:49:56.902Z,3.00
2022-11-20T04:52:24.996Z,3.08
2022-11-20T04:54:54.386Z,2.40
2022-11-20T04:57:23.108Z,2.97
2022-11-20T04:59:51.061Z,3.15
2022-11-20T05:02:20.646Z,2.65
2022-11-20T05:04:48.651Z,2.80
2022-11-20T05:07:16.597Z,2.95
2022-11-20T05:09:44.573Z,2.90
2022-11-20T05:12:12.575Z,2.63
2022-11-20T05:14:40.418Z,2.83
2022-11-20T05:17:08.330Z,2.95
2022-11-20T05:19:37.840Z,2.67
2022-11-20T05:22:06.839Z,2.70
2022-11-20T05:24:34.740Z,3.20
2022-11-20T05:27:02.549Z,2.92
2022-11-20T05:29:30.353Z,3.03
2022-11-20T05:31:58.177Z,2.78
2022-11-20T05:34:26.234Z,2.90
2022-11-20T05:36:55.583Z,2.67
2022-11-20T05:39:23.764Z,2.63
2022-11-20T05:42:12.662Z,2.90
2022-11-20T05:44:40.451Z,2.88
2022-11-20T05:47:08.638Z,2.88
2022-11-20T05:49:36.701Z,3.30
2022-11-20T05:52:06.157Z,2.60
2022-11-20T05:54:34.436Z,2.50
2022-11-20T05:57:02.354Z,2.83
2022-11-20T05:59:30.729Z,3.05
2022-11-20T06:01:58.641Z,3.00
2022-11-20T06:04:26.568Z,2.90
2022-11-20T06:06:54.354Z,3.03
2022-11-20T06:09:23.720Z,2.78
2022-11-20T06:11:51.902Z,3.00
2022-11-20T06:14:20.055Z,2.78
2022-11-20T06:16:47.951Z,2.70
2022-11-20T06:19:16.124Z,2.47
2022-11-20T06:21:43.990Z,2.80
2022-11-20T06:24:12.312Z,2.88
2022-11-20T06:26:41.782Z,2.80
2022-11-20T06:29:09.814Z,3.05
2022-11-20T06:31:38.851Z,2.75
2022-11-20T06:34:07.207Z,2.70
2022-11-20T06:36:35.576Z,2.95
2022-11-20T06:39:03.438Z,2.63
2022-11-20T06:41:31.756Z,3.15
2022-11-20T06:44:02.394Z,2.97
2022-11-20T06:46:30.141Z,3.25
2022-11-20T06:48:59.189Z,3.42
2022-11-20T06:51:27.091Z,3.13
2022-11-20T06:53:55.510Z,2.90
2022-11-20T06:56:23.736Z,2.75
2022-11-20T06:58:51.497Z,3.25
2022-11-20T07:01:20.790Z,2.97
2022-11-20T07:03:54.467Z,2.60
2022-11-20T07:06:22.835Z,2.85
2022-11-20T07:08:52.782Z,2.95
2022-11-20T07:11:20.594Z,3.15
2022-11-20T07:13:50.729Z,3.10
2022-11-20T07:16:19.944Z,3.28
2022-11-20T07:18:50.744Z,3.30
2022-11-20T07:21:19.297Z,2.90
2022-11-20T07:23:47.450Z,2.92
2022-11-20T07:26:15.338Z,3.50
2022-11-20T07:28:46.587Z,3.00
2022-11-20T07:31:18.704Z,3.30
2022-11-20T07:33:48.985Z,3.10
2022-11-20T07:36:17.051Z,3.15
2022-11-20T07:38:44.893Z,3.05
2022-11-20T07:41:12.727Z,3.30
2022-11-20T07:43:41.550Z,3.63
2022-11-20T07:46:09.910Z,4.22
2022-11-20T07:48:38.017Z,3.60
2022-11-20T07:51:07.443Z,4.28
2022-11-20T07:53:35.453Z,4.57
2022-11-20T07:56:04.236Z,3.20
2022-11-20T07:58:33.945Z,2.97
2022-11-20T08:01:05.299Z,3.30
2022-11-20T08:03:33.117Z,3.80
2022-11-20T08:06:01.762Z,3.75
2022-11-20T08:08:33.853Z,3.15
2022-11-20T08:11:16.405Z,3.40
2022-11-20T08:14:01.816Z,2.70
2022-11-20T08:16:29.913Z,3.00
2022-11-20T08:18:58.353Z,2.97
2022-11-20T08:21:26.461Z,3.10
2022-11-20T08:23:55.694Z,2.72
2022-11-20T08:26:24.305Z,3.38
2022-11-20T08:28:56.241Z,2.97
2022-11-20T08:31:24.455Z,2.78
2022-11-20T08:33:52.576Z,2.80
2022-11-20T08:36:21.300Z,3.20
2022-11-20T08:38:50.288Z,3.83
2022-11-20T08:41:28.859Z,2.90
2022-11-20T08:43:58.875Z,3.30
2022-11-20T08:46:28.436Z,4.78
2022-11-20T08:48:56.342Z,4.00
2022-11-20T08:51:24.243Z,3.58
2022-11-20T08:53:52.577Z,3.38
2022-11-20T08:56:21.905Z,5.10
2022-11-20T09:01:40.083Z,3.80
2022-11-20T09:04:07.872Z,2.22
2022-11-20T09:06:36.221Z,3.15
2022-11-20T09:09:06.877Z,2.95
2022-11-20T09:11:36.551Z,2.72
2022-11-20T09:14:05.564Z,2.40
2022-11-20T09:16:33.542Z,2.40
2022-11-20T09:19:33.661Z,3.20
2022-11-20T09:21:49.418Z,4.70
2022-11-20T09:24:17.314Z,3.22
2022-11-20T09:26:46.560Z,3.75
2022-11-20T09:29:14.616Z,3.92
2022-11-20T09:31:43.702Z,3.50
2022-11-20T09:34:11.959Z,3.25
2022-11-20T09:36:39.807Z,3.72
2022-11-20T09:39:08.612Z,3.92
2022-11-20T09:42:01.537Z,4.90
2022-11-20T09:45:02.985Z,2.80
2022-11-20T09:47:46.412Z,3.08
2022-11-20T09:50:29.885Z,5.10
2022-11-20T09:53:10.728Z,3.70
2022-11-20T09:55:40.001Z,2.55
2022-11-20T09:58:15.261Z,3.05
2022-11-20T10:00:43.613Z,5.43
2022-11-20T10:03:16.984Z,4.63
2022-11-20T10:05:48.462Z,3.55
2022-11-20T10:08:22.873Z,3.95
2022-11-20T10:10:56.019Z,3.53
2022-11-20T10:13:38.773Z,4.70
2022-11-20T10:16:24.583Z,2.65
2022-11-20T10:19:08.237Z,3.45
2022-11-20T10:21:45.958Z,4.00
2022-11-20T10:24:38.857Z,3.00
2022-11-20T10:27:21.783Z,2.47
2022-11-20T10:30:02.257Z,2.42
2022-11-20T10:32:37.235Z,2.55
2022-11-20T10:35:16.295Z,3.83
2022-11-20T10:37:46.854Z,2.70
2022-11-20T10:40:25.457Z,3.05
2022-11-20T10:42:58.639Z,3.30
2022-11-20T10:45:45.648Z,2.60
2022-11-20T10:48:18.512Z,3.47
2022-11-20T10:51:01.115Z,3.30
2022-11-20T10:53:47.502Z,3.45
2022-11-20T10:56:22.818Z,2.70
2022-11-20T10:59:02.785Z,3.03
2022-11-20T11:01:32.082Z,2.58
2022-11-20T11:04:01.297Z,2.63
2022-11-20T11:06:37.869Z,2.25
2022-11-20T11:09:14.233Z,2.53
2022-11-20T11:11:42.113Z,3.00
2022-11-20T11:14:12.318Z,3.00
2022-11-20T11:16:51.720Z,2.90
2022-11-20T11:19:19.841Z,3.33
2022-11-20T11:21:54.926Z,2.58
2022-11-20T11:24:42.737Z,2.78
2022-11-20T11:27:17.726Z,2.65
2022-11-20T11:29:46.468Z,3.10
2022-11-20T11:32:19.353Z,3.13
2022-11-20T11:34:47.283Z,2.85
2022-11-20T11:37:19.300Z,3.50
2022-11-20T11:39:55.135Z,3.67
2022-11-20T11:42:32.418Z,3.20
2022-11-20T11:45:07.434Z,3.47
2022-11-20T11:47:39.707Z,2.80
2022-11-20T11:50:22.309Z,4.68
2022-11-20T11:52:58.064Z,3.22
2022-11-20T11:55:35.596Z,2.85
2022-11-20T11:58:16.499Z,3.10
2022-11-20T12:00:59.905Z,3.30
2022-11-20T12:03:37.698Z,3.65
2022-11-20T12:06:12.412Z,3.17
2022-11-20T12:08:47.996Z,2.90
2022-11-20T12:11:22.043Z,3.00
2022-11-20T12:13:56.371Z,3.25
2022-11-20T12:16:24.909Z,2.78
2022-11-20T12:18:54.689Z,3.88
2022-11-20T12:21:33.162Z,3.85
2022-11-20T12:24:46.782Z,2.67
2022-11-20T12:27:38.432Z,2.45
2022-11-20T12:30:10.958Z,3.00
2022-11-20T12:33:00.543Z,3.20
2022-11-20T12:35:46.628Z,2.75
2022-11-20T12:38:39.956Z,2.80
2022-11-20T12:41:36.353Z,3.60
2022-11-20T12:44:37.559Z,4.20
2022-11-20T12:47:19.655Z,2.90
2022-11-20T12:49:55.986Z,3.80
2022-11-20T12:52:39.934Z,2.90
2022-11-20T12:55:18.796Z,3.58
2022-11-20T12:57:55.615Z,3.13
2022-11-20T13:00:25.602Z,3.15
2022-11-20T13:03:09.301Z,2.83
2022-11-20T13:05:48.055Z,2.30
2022-11-20T13:08:24.774Z,2.53
2022-11-20T13:10:59.450Z,3.08
2022-11-20T13:13:38.930Z,3.25
2022-11-20T13:16:18.791Z,2.53
2022-11-20T13:18:46.943Z,3.17
2022-11-20T13:21:21.606Z,2.47
2022-11-20T13:23:51.064Z,2.90
2022-11-20T13:26:22.512Z,2.80
2022-11-20T13:29:04.501Z,2.88
2022-11-20T13:31:35.105Z,3.30
2022-11-20T13:34:07.084Z,2.90
2022-11-20T13:36:37.749Z,3.15
2022-11-20T13:39:07.648Z,3.70
2022-11-20T13:41:41.620Z,3.38
2022-11-20T13:44:16.397Z,3.50
2022-11-20T13:46:46.629Z,3.63
2022-11-20T13:49:20.711Z,3.20
2022-11-20T13:51:51.582Z,3.20
2022-11-20T13:54:54.998Z,3.30
2022-11-20T13:57:45.011Z,3.70
2022-11-20T14:00:15.162Z,3.85
2022-11-20T14:02:44.864Z,3.47
2022-11-20T14:05:21.779Z,3.65
2022-11-20T14:07:51.050Z,3.38
2022-11-20T14:10:31.062Z,3.78
2022-11-20T14:13:11.500Z,3.40
2022-11-20T14:15:44.792Z,3.25
2022-11-20T14:18:16.401Z,3.17
2022-11-20T14:20:45.212Z,3.50
2022-11-20T14:23:13.594Z,4.20
2022-11-20T14:25:47.608Z,3.03
2022-11-20T14:28:27.833Z,2.80
2022-11-20T14:30:56.201Z,2.83
2022-11-20T14:33:26.354Z,3.20
2022-11-20T14:35:57.063Z,3.70
2022-11-20T14:38:27.818Z,3.10
2022-11-20T14:41:08.973Z,3.67
2022-11-20T14:43:38.734Z,4.05
2022-11-20T14:46:10.109Z,3.00
2022-11-20T14:48:42.258Z,2.88
2022-11-20T14:51:12.186Z,3.47
2022-11-20T14:53:40.427Z,3.00
2022-11-20T14:56:10.999Z,3.10
2022-11-20T14:58:38.929Z,3.55
2022-11-20T15:01:08.733Z,3.15
2022-11-20T15:03:38.373Z,3.47
2022-11-20T15:06:07.110Z,3.33
2022-11-20T15:08:36.129Z,3.60
2022-11-20T15:11:04.510Z,3.50
2022-11-20T15:13:36.492Z,3.75
2022-11-20T15:16:06.097Z,3.60
2022-11-20T15:18:39.198Z,3.95
2022-11-20T15:21:13.072Z,3.67
2022-11-20T15:23:41.095Z,3.58
2022-11-20T15:26:09.763Z,4.10
2022-11-20T15:28:41.768Z,3.97
2022-11-20T15:31:13.478Z,3.60
2022-11-20T15:33:41.348Z,4.32
2022-11-20T15:36:09.191Z,3.60
2022-11-20T15:38:37.551Z,3.70
2022-11-20T15:41:08.482Z,3.70
2022-11-20T15:43:38.025Z,3.92
2022-11-20T15:46:08.516Z,4.55
2022-11-20T15:48:44.620Z,4.25
2022-11-20T15:51:24.971Z,4.05
2022-11-20T15:53:52.856Z,4.25
2022-11-20T15:56:20.854Z,4.10
2022-11-20T15:58:51.207Z,3.95
2022-11-20T16:01:21.601Z,4.60
2022-11-20T16:03:50.585Z,3.65
2022-11-20T16:06:18.801Z,3.65
2022-11-20T16:08:46.986Z,4.13
2022-11-20T16:11:16.705Z,3.90
2022-11-20T16:14:02.041Z,4.05
2022-11-20T16:16:34.254Z,4.57
2022-11-20T16:19:02.478Z,3.63
2022-11-20T16:21:32.206Z,4.13
2022-11-20T16:24:01.237Z,3.88
2022-11-20T16:26:29.871Z,4.05
2022-11-20T16:28:58.411Z,3.67
2022-11-20T16:31:26.299Z,3.53
2022-11-20T16:33:57.115Z,3.53
2022-11-20T16:36:28.444Z,3.85
2022-11-20T16:38:57.804Z,3.28
2022-11-20T16:41:27.583Z,4.00
2022-11-20T16:43:59.241Z,4.15
2022-11-20T16:46:29.033Z,3.58
2022-11-20T16:48:59.876Z,4.28
2022-11-20T16:51:29.185Z,4.10
2022-11-20T16:53:57.609Z,3.67
2022-11-20T16:56:27.604Z,4.03
2022-11-20T16:58:57.404Z,3.53
2022-11-20T17:01:26.365Z,3.75
2022-11-20T17:03:59.898Z,3.90
2022-11-20T17:06:31.822Z,3.88
2022-11-20T17:08:59.674Z,3.67
2022-11-20T17:11:28.795Z,3.78
2022-11-20T17:13:57.622Z,3.78
2022-11-20T17:16:26.301Z,4.00
2022-11-20T17:19:01.075Z,3.42
2022-11-20T17:21:36.166Z,3.92
2022-11-20T17:24:06.636Z,4.10
2022-11-20T17:26:35.932Z,3.70
2022-11-20T17:29:05.857Z,3.50
2022-11-20T17:31:35.615Z,3.72
2022-11-20T17:34:03.729Z,3.53
2022-11-20T17:36:33.539Z,4.10
2022-11-20T17:39:01.588Z,3.75
2022-11-20T17:41:30.746Z,3.63
2022-11-20T17:44:00.202Z,4.03
2022-11-20T17:46:29.988Z,4.72
2022-11-20T17:48:58.126Z,3.97
2022-11-20T17:51:28.839Z,4.22
2022-11-20T17:54:00.902Z,4.10
2022-11-20T17:56:49.966Z,3.40
2022-11-20T17:59:18.873Z,5.80
2022-11-20T18:01:46.989Z,3.92
2022-11-20T18:04:15.437Z,10.32
2022-11-20T18:06:44.201Z,4.00
2022-11-20T18:09:13.710Z,3.03
2022-11-20T18:11:43.726Z,3.20
2022-11-20T18:14:32.617Z,3.50
2022-11-20T18:17:02.814Z,4.20
2022-11-20T18:19:33.208Z,3.58
2022-11-20T18:22:04.158Z,3.97
2022-11-20T18:24:33.842Z,3.28
2022-11-20T18:27:01.652Z,2.45
2022-11-20T18:29:31.162Z,2.80
2022-11-20T18:31:59.894Z,2.90
2022-11-20T18:34:28.393Z,2.63
2022-11-20T18:36:56.343Z,2.30
2022-11-20T18:39:24.518Z,3.50
2022-11-20T18:42:12.133Z,2.92
2022-11-20T18:44:52.180Z,2.72
2022-11-20T18:47:22.212Z,2.70
2022-11-20T18:49:52.583Z,3.00
2022-11-20T18:52:23.001Z,3.20
2022-11-20T18:54:51.788Z,2.88
2022-11-20T18:57:22.692Z,2.80
2022-11-20T18:59:50.666Z,2.90
2022-11-20T19:02:21.073Z,3.40
2022-11-20T19:04:49.786Z,4.22
2022-11-20T19:07:18.526Z,3.13
2022-11-20T19:09:50.579Z,3.17
2022-11-20T19:12:20.441Z,2.97
2022-11-20T19:14:48.571Z,2.42
2022-11-20T19:17:17.663Z,2.25
2022-11-20T19:19:46.025Z,2.03
2022-11-20T19:22:13.829Z,2.13
2022-11-20T19:24:41.792Z,2.42
2022-11-20T19:27:09.792Z,2.30
2022-11-20T19:29:40.762Z,2.40
2022-11-20T19:32:08.695Z,2.30
2022-11-20T19:34:36.569Z,2.30
2022-11-20T19:37:05.157Z,3.10
2022-11-20T19:39:33.071Z,2.35
2022-11-20T19:42:01.159Z,3.20
2022-11-20T19:44:29.155Z,2.90
2022-11-20T19:46:58.619Z,3.47
2022-11-20T19:49:26.712Z,2.83
2022-11-20T19:51:54.735Z,2.90
2022-11-20T19:54:22.610Z,2.83
2022-11-20T19:56:50.696Z,2.40
2022-11-20T19:59:18.827Z,2.15
2022-11-20T20:01:47.249Z,2.20
2022-11-20T20:04:16.930Z,2.00
2022-11-20T20:06:44.773Z,2.47
2022-11-20T20:09:14.128Z,2.65
2022-11-20T20:11:45.646Z,2.72
2022-11-20T20:14:15.123Z,2.60
2022-11-20T20:16:43.615Z,2.70
2022-11-20T20:19:14.686Z,3.63
2022-11-20T20:21:44.213Z,3.65
2022-11-20T20:24:13.060Z,4.00
2022-11-20T20:26:41.397Z,4.22
2022-11-20T20:29:09.441Z,3.78
2022-11-20T20:31:37.262Z,3.72
2022-11-20T20:34:06.051Z,4.18
2022-11-20T20:36:34.427Z,3.60
2022-11-20T20:39:03.865Z,3.28
2022-11-20T20:41:32.016Z,2.70
2022-11-20T20:44:17.971Z,2.58
2022-11-20T20:46:45.914Z,2.83
2022-11-20T20:49:14.390Z,2.72
2022-11-20T20:51:42.204Z,2.70
2022-11-20T20:54:11.482Z,2.50
2022-11-20T20:56:40.275Z,2.50
2022-11-20T20:59:08.539Z,2.83
2022-11-20T21:01:36.462Z,2.67
2022-11-20T21:04:04.410Z,3.00
2022-11-20T21:06:32.252Z,2.90
2022-11-20T21:09:00.373Z,2.45
2022-11-20T21:11:29.711Z,3.28
2022-11-20T21:13:57.709Z,2.55
2022-11-20T21:16:26.214Z,2.35
2022-11-20T21:18:54.132Z,2.22
2022-11-20T21:21:39.243Z,2.28
2022-11-20T21:24:08.099Z,2.40
2022-11-20T21:26:37.322Z,2.70
2022-11-20T21:29:05.177Z,2.55
2022-11-20T21:31:33.167Z,2.50
2022-11-20T21:34:01.420Z,2.72
2022-11-20T21:36:31.164Z,2.97
2022-11-20T21:39:00.146Z,3.13
2022-11-20T21:41:30.291Z,2.97
2022-11-20T21:44:41.688Z,3.38
2022-11-20T21:46:50.506Z,3.13
2022-11-20T21:49:18.365Z,3.30
2022-11-20T21:51:47.102Z,3.13
2022-11-20T21:54:15.771Z,3.38
2022-11-20T21:56:43.696Z,3.30
2022-11-20T21:59:14.612Z,2.70
2022-11-20T22:01:42.754Z,3.38
2022-11-20T22:04:14.280Z,3.10
2022-11-20T22:06:42.568Z,3.00
2022-11-20T22:09:12.331Z,3.00
2022-11-20T22:11:40.625Z,2.92
2022-11-20T22:14:23.757Z,3.60
2022-11-20T22:16:55.046Z,3.55
2022-11-20T22:19:24.158Z,4.10
2022-11-20T22:21:52.476Z,4.47
2022-11-20T22:24:22.646Z,4.50
2022-11-20T22:26:51.109Z,5.20
2022-11-20T22:29:20.906Z,5.00
2022-11-20T22:31:49.189Z,4.72
2022-11-20T22:34:18.347Z,5.10
2022-11-20T22:36:46.187Z,5.15
2022-11-20T22:39:14.383Z,5.82
2022-11-20T22:41:42.337Z,6.63
2022-11-20T22:44:10.267Z,8.10
2022-11-20T22:46:38.579Z,7.00
2022-11-20T22:49:09.451Z,6.90
2022-11-20T22:51:40.655Z,7.50
2022-11-20T22:54:09.848Z,8.45
2022-11-20T22:56:37.696Z,7.00
2022-11-20T22:59:05.755Z,6.80
2022-11-20T23:01:36.642Z,6.68
2022-11-20T23:04:06.798Z,6.47
2022-11-20T23:06:35.180Z,6.82
2022-11-20T23:09:04.914Z,6.75
2022-11-20T23:11:33.968Z,6.68
2022-11-20T23:14:03.949Z,7.25
2022-11-20T23:16:34.380Z,7.35
2022-11-20T23:19:04.602Z,6.70
2022-11-20T23:21:33.052Z,6.40
2022-11-20T23:24:01.163Z,6.60
2022-11-20T23:26:34.894Z,6.60
2022-11-20T23:29:03.336Z,6.78
2022-11-20T23:31:33.893Z,6.63
2022-11-20T23:34:02.107Z,6.00
2022-11-20T23:36:29.989Z,6.57
2022-11-20T23:38:58.073Z,6.18
2022-11-20T23:41:25.956Z,6.10
2022-11-20T23:43:55.259Z,5.80
2022-11-20T23:46:23.320Z,5.82
2022-11-20T23:48:51.187Z,6.07
2022-11-20T23:51:19.165Z,4.90
2022-11-20T23:53:47.050Z,5.47
2022-11-20T23:56:15.313Z,5.53
2022-11-20T23:58:43.989Z,6.18
